sensor_id;sensor_type;location;lat;lon;timestamp;pressure;altitude;pressure_sealevel;temperature;humidity
43707;BME280;61348;53.392;-6.248;2023-11-21T00:01:34;101660.06;;;6.95;92.42
43707;BME280;61348;53.392;-6.248;2023-11-21T00:04:01;101652.91;;;6.94;92.41
43707;BME280;61348;53.392;-6.248;2023-11-21T00:06:28;101655.97;;;6.93;92.62
43707;BME280;61348;53.392;-6.248;2023-11-21T00:08:57;101662.28;;;6.93;92.67
43707;BME280;61348;53.392;-6.248;2023-11-21T00:11:24;101670.84;;;6.92;92.67
43707;BME280;61348;53.392;-6.248;2023-11-21T00:13:52;101681.03;;;6.91;92.85
43707;BME280;61348;53.392;-6.248;2023-11-21T00:16:19;101675.84;;;6.90;93.02
43707;BME280;61348;53.392;-6.248;2023-11-21T00:18:47;101684.09;;;6.90;92.84
43707;BME280;61348;53.392;-6.248;2023-11-21T00:21:14;101698.16;;;6.88;93.11
43707;BME280;61348;53.392;-6.248;2023-11-21T00:23:42;101691.31;;;6.86;93.11
43707;BME280;61348;53.392;-6.248;2023-11-21T00:26:10;101692.41;;;6.85;93.28
43707;BME280;61348;53.392;-6.248;2023-11-21T00:28:37;101699.03;;;6.84;93.06
43707;BME280;61348;53.392;-6.248;2023-11-21T00:31:04;101697.41;;;6.83;93.52
43707;BME280;61348;53.392;-6.248;2023-11-21T00:33:32;101693.31;;;6.80;93.42
43707;BME280;61348;53.392;-6.248;2023-11-21T00:35:59;101698.00;;;6.80;93.61
43707;BME280;61348;53.392;-6.248;2023-11-21T00:38:28;101699.09;;;6.79;93.62
43707;BME280;61348;53.392;-6.248;2023-11-21T00:40:55;101709.28;;;6.78;93.54
43707;BME280;61348;53.392;-6.248;2023-11-21T00:43:23;101714.28;;;6.76;93.63
43707;BME280;61348;53.392;-6.248;2023-11-21T00:45:51;101709.09;;;6.74;93.75
43707;BME280;61348;53.392;-6.248;2023-11-21T00:48:18;101711.28;;;6.72;93.88
43707;BME280;61348;53.392;-6.248;2023-11-21T00:50:46;101717.41;;;6.69;93.74
43707;BME280;61348;53.392;-6.248;2023-11-21T00:53:13;101713.00;;;6.68;93.72
43707;BME280;61348;53.392;-6.248;2023-11-21T00:55:40;101720.75;;;6.66;93.69
43707;BME280;61348;53.392;-6.248;2023-11-21T00:58:08;101716.34;;;6.65;93.91
43707;BME280;61348;53.392;-6.248;2023-11-21T01:00:35;101718.59;;;6.63;94.13
43707;BME280;61348;53.392;-6.248;2023-11-21T01:03:02;101719.69;;;6.62;93.91
43707;BME280;61348;53.392;-6.248;2023-11-21T01:05:30;101721.34;;;6.63;94.01
43707;BME280;61348;53.392;-6.248;2023-11-21T01:07:57;101713.66;;;6.60;93.88
43707;BME280;61348;53.392;-6.248;2023-11-21T01:10:24;101709.56;;;6.58;94.13
43707;BME280;61348;53.392;-6.248;2023-11-21T01:12:52;101715.38;;;6.56;94.24
43707;BME280;61348;53.392;-6.248;2023-11-21T01:15:19;101713.75;;;6.55;94.14
43707;BME280;61348;53.392;-6.248;2023-11-21T01:17:47;101709.88;;;6.56;94.12
43707;BME280;61348;53.392;-6.248;2023-11-21T01:20:14;101729.94;;;6.57;94.20
43707;BME280;61348;53.392;-6.248;2023-11-21T01:22:42;101727.50;;;6.55;94.13
43707;BME280;61348;53.392;-6.248;2023-11-21T01:25:10;101736.84;;;6.54;94.01
43707;BME280;61348;53.392;-6.248;2023-11-21T01:27:38;101750.59;;;6.54;93.91
43707;BME280;61348;53.392;-6.248;2023-11-21T01:30:06;101767.09;;;6.54;93.95
43707;BME280;61348;53.392;-6.248;2023-11-21T01:32:35;101759.69;;;6.55;93.95
43707;BME280;61348;53.392;-6.248;2023-11-21T01:35:03;101759.69;;;6.55;93.97
43707;BME280;61348;53.392;-6.248;2023-11-21T01:37:33;101764.34;;;6.54;93.74
43707;BME280;61348;53.392;-6.248;2023-11-21T01:40:00;101768.25;;;6.53;93.65
43707;BME280;61348;53.392;-6.248;2023-11-21T01:42:28;101772.91;;;6.53;93.68
43707;BME280;61348;53.392;-6.248;2023-11-21T01:44:56;101775.16;;;6.51;93.72
43707;BME280;61348;53.392;-6.248;2023-11-21T01:47:23;101779.81;;;6.50;93.90
43707;BME280;61348;53.392;-6.248;2023-11-21T01:49:51;101791.94;;;6.49;93.83
43707;BME280;61348;53.392;-6.248;2023-11-21T01:52:18;101793.06;;;6.48;93.75
43707;BME280;61348;53.392;-6.248;2023-11-21T01:54:46;101806.00;;;6.48;94.01
43707;BME280;61348;53.392;-6.248;2023-11-21T01:57:14;101815.06;;;6.48;93.95
43707;BME280;61348;53.392;-6.248;2023-11-21T01:59:44;101804.66;;;6.45;94.11
43707;BME280;61348;53.392;-6.248;2023-11-21T02:02:12;101807.97;;;6.42;94.18
43707;BME280;61348;53.392;-6.248;2023-11-21T02:04:40;101804.69;;;6.40;94.22
43707;BME280;61348;53.392;-6.248;2023-11-21T02:07:08;101806.91;;;6.38;94.14
43707;BME280;61348;53.392;-6.248;2023-11-21T02:09:35;101820.97;;;6.37;94.12
43707;BME280;61348;53.392;-6.248;2023-11-21T02:12:05;101814.09;;;6.34;94.26
43707;BME280;61348;53.392;-6.248;2023-11-21T02:14:32;101818.25;;;6.32;94.09
43707;BME280;61348;53.392;-6.248;2023-11-21T02:17:00;101824.59;;;6.32;94.43
43707;BME280;61348;53.392;-6.248;2023-11-21T02:19:28;101815.25;;;6.28;94.22
43707;BME280;61348;53.392;-6.248;2023-11-21T02:21:57;101827.66;;;6.26;94.24
43707;BME280;61348;53.392;-6.248;2023-11-21T02:24:28;101822.75;;;6.23;94.61
43707;BME280;61348;53.392;-6.248;2023-11-21T02:26:55;101811.75;;;6.23;94.66
43707;BME280;61348;53.392;-6.248;2023-11-21T02:29:23;101810.94;;;6.22;94.54
43707;BME280;61348;53.392;-6.248;2023-11-21T02:31:55;101810.94;;;6.22;94.59
43707;BME280;61348;53.392;-6.248;2023-11-21T02:34:23;101816.44;;;6.22;94.32
43707;BME280;61348;53.392;-6.248;2023-11-21T02:36:52;101817.53;;;6.21;94.43
43707;BME280;61348;53.392;-6.248;2023-11-21T02:39:21;101825.53;;;6.18;94.52
43707;BME280;61348;53.392;-6.248;2023-11-21T02:41:52;101839.59;;;6.16;94.77
43707;BME280;61348;53.392;-6.248;2023-11-21T02:44:19;101835.50;;;6.13;94.61
43707;BME280;61348;53.392;-6.248;2023-11-21T02:46:46;101842.09;;;6.12;94.69
43707;BME280;61348;53.392;-6.248;2023-11-21T02:49:14;101838.81;;;6.10;94.60
43707;BME280;61348;53.392;-6.248;2023-11-21T02:51:41;101847.06;;;6.10;94.70
43707;BME280;61348;53.392;-6.248;2023-11-21T02:54:09;101847.06;;;6.10;94.66
43707;BME280;61348;53.392;-6.248;2023-11-21T02:56:36;101870.72;;;6.11;94.57
43707;BME280;61348;53.392;-6.248;2023-11-21T02:59:04;101853.38;;;6.11;94.64
43707;BME280;61348;53.392;-6.248;2023-11-21T03:01:31;101880.88;;;6.11;94.65
43707;BME280;61348;53.392;-6.248;2023-11-21T03:04:00;101882.53;;;6.07;94.86
43707;BME280;61348;53.392;-6.248;2023-11-21T03:06:28;101889.69;;;6.08;94.58
43707;BME280;61348;53.392;-6.248;2023-11-21T03:08:56;101890.28;;;6.05;94.84
43707;BME280;61348;53.392;-6.248;2023-11-21T03:11:23;101888.09;;;6.02;94.88
43707;BME280;61348;53.392;-6.248;2023-11-21T03:13:50;101896.06;;;6.03;94.93
43707;BME280;61348;53.392;-6.248;2023-11-21T03:16:18;101897.69;;;6.04;94.87
43707;BME280;61348;53.392;-6.248;2023-11-21T03:18:46;101891.66;;;6.02;94.79
43707;BME280;61348;53.392;-6.248;2023-11-21T03:21:14;101893.59;;;6.02;94.90
43707;BME280;61348;53.392;-6.248;2023-11-21T03:23:41;101888.09;;;6.02;95.08
43707;BME280;61348;53.392;-6.248;2023-11-21T03:26:11;101883.72;;;6.01;94.93
43707;BME280;61348;53.392;-6.248;2023-11-21T03:28:40;101891.13;;;6.00;94.76
43707;BME280;61348;53.392;-6.248;2023-11-21T03:31:07;101890.84;;;6.02;95.04
43707;BME280;61348;53.392;-6.248;2023-11-21T03:33:36;101894.16;;;5.99;95.01
43707;BME280;61348;53.392;-6.248;2023-11-21T03:36:03;101903.22;;;5.99;94.89
43707;BME280;61348;53.392;-6.248;2023-11-21T03:38:31;101914.53;;;5.98;94.82
43707;BME280;61348;53.392;-6.248;2023-11-21T03:40:58;101914.78;;;5.96;95.21
43707;BME280;61348;53.392;-6.248;2023-11-21T03:43:26;101923.03;;;5.96;94.98
43707;BME280;61348;53.392;-6.248;2023-11-21T03:45:54;101922.81;;;5.93;94.85
43707;BME280;61348;53.392;-6.248;2023-11-21T03:48:21;101922.81;;;5.93;95.05
43707;BME280;61348;53.392;-6.248;2023-11-21T03:50:48;101926.66;;;5.92;95.09
43707;BME280;61348;53.392;-6.248;2023-11-21T03:53:15;101922.53;;;5.89;95.16
43707;BME280;61348;53.392;-6.248;2023-11-21T03:55:43;101930.53;;;5.86;95.21
43707;BME280;61348;53.392;-6.248;2023-11-21T03:58:10;101920.66;;;5.85;95.28
43707;BME280;61348;53.392;-6.248;2023-11-21T04:00:37;101929.97;;;5.84;95.36
43707;BME280;61348;53.392;-6.248;2023-11-21T04:03:05;101919.53;;;5.81;95.34
43707;BME280;61348;53.392;-6.248;2023-11-21T04:05:32;101924.22;;;5.80;95.64
43707;BME280;61348;53.392;-6.248;2023-11-21T04:07:59;101930.53;;;5.81;95.52
43707;BME280;61348;53.392;-6.248;2023-11-21T04:10:27;101926.44;;;5.78;95.62
43707;BME280;61348;53.392;-6.248;2023-11-21T04:12:54;101927.53;;;5.77;95.58
43707;BME280;61348;53.392;-6.248;2023-11-21T04:15:21;101930.56;;;5.76;95.83
43707;BME280;61348;53.392;-6.248;2023-11-21T04:17:48;101935.81;;;5.72;95.88
43707;BME280;61348;53.392;-6.248;2023-11-21T04:20:16;101944.34;;;5.71;95.63
43707;BME280;61348;53.392;-6.248;2023-11-21T04:22:44;101946.81;;;5.67;95.88
43707;BME280;61348;53.392;-6.248;2023-11-21T04:25:14;101947.13;;;5.66;95.94
43707;BME280;61348;53.392;-6.248;2023-11-21T04:27:42;101944.38;;;5.66;96.26
43707;BME280;61348;53.392;-6.248;2023-11-21T04:30:12;101943.84;;;5.64;95.93
43707;BME280;61348;53.392;-6.248;2023-11-21T04:32:40;101946.59;;;5.64;96.46
43707;BME280;61348;53.392;-6.248;2023-11-21T04:35:09;101944.09;;;5.62;96.39
43707;BME280;61348;53.392;-6.248;2023-11-21T04:37:36;101951.81;;;5.60;96.26
43707;BME280;61348;53.392;-6.248;2023-11-21T04:40:04;101946.03;;;5.62;96.32
43707;BME280;61348;53.392;-6.248;2023-11-21T04:42:34;101949.91;;;5.61;96.37
43707;BME280;61348;53.392;-6.248;2023-11-21T04:45:04;101962.81;;;5.60;96.55
43707;BME280;61348;53.392;-6.248;2023-11-21T04:47:36;101958.13;;;5.61;96.61
43707;BME280;61348;53.392;-6.248;2023-11-21T04:50:04;101963.63;;;5.61;96.70
43707;BME280;61348;53.392;-6.248;2023-11-21T04:52:32;101970.75;;;5.62;96.67
43707;BME280;61348;53.392;-6.248;2023-11-21T04:55:00;101976.25;;;5.62;96.79
43707;BME280;61348;53.392;-6.248;2023-11-21T04:57:29;101984.47;;;5.62;96.62
43707;BME280;61348;53.392;-6.248;2023-11-21T04:59:56;101981.75;;;5.62;96.71
43707;BME280;61348;53.392;-6.248;2023-11-21T05:02:23;101980.94;;;5.61;96.81
43707;BME280;61348;53.392;-6.248;2023-11-21T05:05:02;101996.59;;;5.61;96.83
43707;BME280;61348;53.392;-6.248;2023-11-21T05:07:29;102005.38;;;5.63;97.09
43707;BME280;61348;53.392;-6.248;2023-11-21T05:09:58;102007.59;;;5.61;96.93
43707;BME280;61348;53.392;-6.248;2023-11-21T05:12:26;102018.03;;;5.59;96.85
43707;BME280;61348;53.392;-6.248;2023-11-21T05:14:53;102012.81;;;5.57;97.19
43707;BME280;61348;53.392;-6.248;2023-11-21T05:17:21;102010.34;;;5.56;97.11
43707;BME280;61348;53.392;-6.248;2023-11-21T05:19:49;102014.19;;;5.54;97.06
43707;BME280;61348;53.392;-6.248;2023-11-21T05:22:17;102011.75;;;5.53;97.43
43707;BME280;61348;53.392;-6.248;2023-11-21T05:24:45;102013.38;;;5.54;97.44
43707;BME280;61348;53.392;-6.248;2023-11-21T05:27:12;102019.69;;;5.54;97.36
43707;BME280;61348;53.392;-6.248;2023-11-21T05:29:39;102031.22;;;5.57;97.57
43707;BME280;61348;53.392;-6.248;2023-11-21T05:32:07;102040.56;;;5.56;97.61
43707;BME280;61348;53.392;-6.248;2023-11-21T05:34:34;102037.81;;;5.56;97.68
43707;BME280;61348;53.392;-6.248;2023-11-21T05:37:01;102048.81;;;5.56;97.51
43707;BME280;61348;53.392;-6.248;2023-11-21T05:39:29;102047.69;;;5.57;97.58
43707;BME280;61348;53.392;-6.248;2023-11-21T05:41:56;102057.59;;;5.58;97.88
43707;BME280;61348;53.392;-6.248;2023-11-21T05:44:24;102065.84;;;5.58;97.82
43707;BME280;61348;53.392;-6.248;2023-11-21T05:46:52;102059.25;;;5.59;97.90
43707;BME280;61348;53.392;-6.248;2023-11-21T05:49:19;102058.13;;;5.60;97.60
43707;BME280;61348;53.392;-6.248;2023-11-21T05:51:49;102057.03;;;5.61;97.65
43707;BME280;61348;53.392;-6.248;2023-11-21T05:54:17;102064.16;;;5.62;97.96
43707;BME280;61348;53.392;-6.248;2023-11-21T05:56:44;102069.13;;;5.60;97.72
43707;BME280;61348;53.392;-6.248;2023-11-21T05:59:11;102069.94;;;5.60;97.69
43707;BME280;61348;53.392;-6.248;2023-11-21T06:01:39;102063.34;;;5.61;97.61
43707;BME280;61348;53.392;-6.248;2023-11-21T06:04:06;102074.59;;;5.60;97.79
43707;BME280;61348;53.392;-6.248;2023-11-21T06:06:36;102077.34;;;5.60;97.72
43707;BME280;61348;53.392;-6.248;2023-11-21T06:09:03;102075.72;;;5.59;97.94
43707;BME280;61348;53.392;-6.248;2023-11-21T06:11:31;102068.56;;;5.58;97.96
43707;BME280;61348;53.392;-6.248;2023-11-21T06:13:59;102076.53;;;5.59;97.96
43707;BME280;61348;53.392;-6.248;2023-11-21T06:16:26;102071.31;;;5.58;98.13
43707;BME280;61348;53.392;-6.248;2023-11-21T06:18:55;102072.41;;;5.57;97.77
43707;BME280;61348;53.392;-6.248;2023-11-21T06:21:22;102079.81;;;5.56;98.08
43707;BME280;61348;53.392;-6.248;2023-11-21T06:23:49;102079.56;;;5.58;98.33
43707;BME280;61348;53.392;-6.248;2023-11-21T06:26:20;102080.41;;;5.58;98.33
43707;BME280;61348;53.392;-6.248;2023-11-21T06:28:48;102076.53;;;5.59;98.32
43707;BME280;61348;53.392;-6.248;2023-11-21T06:31:18;102079.56;;;5.58;98.20
43707;BME280;61348;53.392;-6.248;2023-11-21T06:33:45;102075.72;;;5.59;98.21
43707;BME280;61348;53.392;-6.248;2023-11-21T06:36:13;102077.34;;;5.60;98.07
43707;BME280;61348;53.392;-6.248;2023-11-21T06:38:41;102084.22;;;5.57;98.24
43707;BME280;61348;53.392;-6.248;2023-11-21T06:41:08;102092.22;;;5.59;98.29
43707;BME280;61348;53.392;-6.248;2023-11-21T06:43:35;102093.31;;;5.58;98.26
43707;BME280;61348;53.392;-6.248;2023-11-21T06:46:03;102103.19;;;5.59;98.17
43707;BME280;61348;53.392;-6.248;2023-11-21T06:48:31;102095.50;;;5.56;98.06
43707;BME280;61348;53.392;-6.248;2023-11-21T06:50:59;102106.50;;;5.50;98.10
43707;BME280;61348;53.392;-6.248;2023-11-21T06:53:26;102101.03;;;5.50;98.26
43707;BME280;61348;53.392;-6.248;2023-11-21T06:55:53;102099.91;;;5.46;98.35
43707;BME280;61348;53.392;-6.248;2023-11-21T06:58:20;102112.00;;;5.45;98.26
43707;BME280;61348;53.392;-6.248;2023-11-21T07:00:48;102109.53;;;5.44;98.48
43707;BME280;61348;53.392;-6.248;2023-11-21T07:03:19;102120.25;;;5.40;98.64
43707;BME280;61348;53.392;-6.248;2023-11-21T07:05:47;102125.19;;;5.38;98.56
43707;BME280;61348;53.392;-6.248;2023-11-21T07:08:15;102133.44;;;5.38;98.78
43707;BME280;61348;53.392;-6.248;2023-11-21T07:10:43;102140.31;;;5.36;98.42
43707;BME280;61348;53.392;-6.248;2023-11-21T07:13:10;102142.50;;;5.34;98.48
43707;BME280;61348;53.392;-6.248;2023-11-21T07:15:40;102152.13;;;5.31;98.47
43707;BME280;61348;53.392;-6.248;2023-11-21T07:18:07;102160.38;;;5.26;98.60
43707;BME280;61348;53.392;-6.248;2023-11-21T07:20:35;102167.78;;;5.21;98.57
43707;BME280;61348;53.392;-6.248;2023-11-21T07:23:02;102160.91;;;5.13;98.48
43707;BME280;61348;53.392;-6.248;2023-11-21T07:25:31;102165.84;;;5.06;98.64
43707;BME280;61348;53.392;-6.248;2023-11-21T07:28:00;102154.59;;;5.03;99.09
43707;BME280;61348;53.392;-6.248;2023-11-21T07:30:28;102153.22;;;5.00;99.27
43707;BME280;61348;53.392;-6.248;2023-11-21T07:32:55;102169.13;;;4.98;99.23
43707;BME280;61348;53.392;-6.248;2023-11-21T07:35:22;102183.38;;;4.95;99.11
43707;BME280;61348;53.392;-6.248;2023-11-21T07:37:50;102185.06;;;4.96;99.46
43707;BME280;61348;53.392;-6.248;2023-11-21T07:40:17;102185.06;;;4.96;99.46
43707;BME280;61348;53.392;-6.248;2023-11-21T07:42:45;102185.59;;;4.93;99.09
43707;BME280;61348;53.392;-6.248;2023-11-21T07:45:12;102178.47;;;4.92;99.28
43707;BME280;61348;53.392;-6.248;2023-11-21T07:47:40;102180.94;;;4.88;99.28
43707;BME280;61348;53.392;-6.248;2023-11-21T07:50:08;102186.69;;;4.87;99.18
43707;BME280;61348;53.392;-6.248;2023-11-21T07:52:36;102191.63;;;4.85;99.13
43707;BME280;61348;53.392;-6.248;2023-11-21T07:55:03;102200.97;;;4.84;99.18
43707;BME280;61348;53.392;-6.248;2023-11-21T07:57:31;102205.31;;;4.80;99.09
43707;BME280;61348;53.392;-6.248;2023-11-21T07:59:58;102209.19;;;4.79;99.07
43707;BME280;61348;53.392;-6.248;2023-11-21T08:02:25;102200.91;;;4.74;99.10
43707;BME280;61348;53.392;-6.248;2023-11-21T08:04:54;102206.66;;;4.67;99.26
43707;BME280;61348;53.392;-6.248;2023-11-21T08:07:24;102218.19;;;4.64;99.25
43707;BME280;61348;53.392;-6.248;2023-11-21T08:09:51;102208.56;;;4.62;99.50
43707;BME280;61348;53.392;-6.248;2023-11-21T08:12:19;102211.03;;;4.63;99.71
43707;BME280;61348;53.392;-6.248;2023-11-21T08:14:47;102210.22;;;4.63;99.63
43707;BME280;61348;53.392;-6.248;2023-11-21T08:17:14;102224.50;;;4.65;99.75
43707;BME280;61348;53.392;-6.248;2023-11-21T08:19:44;102233.28;;;4.67;99.67
43707;BME280;61348;53.392;-6.248;2023-11-21T08:22:15;102232.75;;;4.70;99.58
43707;BME280;61348;53.392;-6.248;2023-11-21T08:24:44;102235.47;;;4.70;99.75
43707;BME280;61348;53.392;-6.248;2023-11-21T08:27:14;102236.31;;;4.70;99.81
43707;BME280;61348;53.392;-6.248;2023-11-21T08:29:43;102226.41;;;4.69;99.87
43707;BME280;61348;53.392;-6.248;2023-11-21T08:32:10;102231.06;;;4.69;99.87
43707;BME280;61348;53.392;-6.248;2023-11-21T08:34:37;102236.84;;;4.72;99.83
43707;BME280;61348;53.392;-6.248;2023-11-21T08:37:07;102232.19;;;4.73;99.70
43707;BME280;61348;53.392;-6.248;2023-11-21T08:39:36;102236.31;;;4.75;99.85
43707;BME280;61348;53.392;-6.248;2023-11-21T08:42:04;102248.69;;;4.83;100.00
43707;BME280;61348;53.392;-6.248;2023-11-21T08:44:32;102255.31;;;4.87;99.85
43707;BME280;61348;53.392;-6.248;2023-11-21T08:46:59;102264.06;;;4.89;100.00
43707;BME280;61348;53.392;-6.248;2023-11-21T08:49:26;102263.53;;;4.92;100.00
43707;BME280;61348;53.392;-6.248;2023-11-21T08:51:56;102270.41;;;4.95;99.89
43707;BME280;61348;53.392;-6.248;2023-11-21T08:54:26;102257.50;;;4.95;99.76
43707;BME280;61348;53.392;-6.248;2023-11-21T08:56:54;102269.03;;;4.97;100.00
43707;BME280;61348;53.392;-6.248;2023-11-21T08:59:22;102282.22;;;5.00;100.00
43707;BME280;61348;53.392;-6.248;2023-11-21T09:01:51;102294.31;;;5.04;99.87
43707;BME280;61348;53.392;-6.248;2023-11-21T09:04:18;102297.06;;;5.09;99.89
43707;BME280;61348;53.392;-6.248;2023-11-21T09:06:45;102295.16;;;5.15;100.00
43707;BME280;61348;53.392;-6.248;2023-11-21T09:09:12;102296.81;;;5.16;100.00
43707;BME280;61348;53.392;-6.248;2023-11-21T09:11:41;102293.78;;;5.17;100.00
43707;BME280;61348;53.392;-6.248;2023-11-21T09:14:08;102295.44;;;5.18;99.89
43707;BME280;61348;53.392;-6.248;2023-11-21T09:16:37;102292.69;;;5.18;99.96
43707;BME280;61348;53.392;-6.248;2023-11-21T09:19:05;102280.34;;;5.21;99.89
43707;BME280;61348;53.392;-6.248;2023-11-21T09:21:33;102279.53;;;5.25;100.00
43707;BME280;61348;53.392;-6.248;2023-11-21T09:24:01;102280.06;;;5.32;100.00
43707;BME280;61348;53.392;-6.248;2023-11-21T09:26:29;102283.66;;;5.38;100.00
43707;BME280;61348;53.392;-6.248;2023-11-21T09:28:57;102302.63;;;5.44;100.00
43707;BME280;61348;53.392;-6.248;2023-11-21T09:31:24;102313.59;;;5.49;99.96
43707;BME280;61348;53.392;-6.248;2023-11-21T09:33:52;102318.81;;;5.56;99.94
43707;BME280;61348;53.392;-6.248;2023-11-21T09:36:19;102306.50;;;5.59;100.00
43707;BME280;61348;53.392;-6.248;2023-11-21T09:38:48;102304.81;;;5.63;99.80
43707;BME280;61348;53.392;-6.248;2023-11-21T09:41:34;102300.72;;;5.65;99.85
43707;BME280;61348;53.392;-6.248;2023-11-21T09:44:08;102293.56;;;5.69;99.97
43707;BME280;61348;53.392;-6.248;2023-11-21T09:46:40;102302.06;;;5.73;99.93
43707;BME280;61348;53.392;-6.248;2023-11-21T09:49:09;102302.38;;;5.76;99.87
43707;BME280;61348;53.392;-6.248;2023-11-21T09:51:43;102298.78;;;5.81;99.86
43707;BME280;61348;53.392;-6.248;2023-11-21T09:54:11;102300.97;;;5.84;99.81
43707;BME280;61348;53.392;-6.248;2023-11-21T09:56:38;102297.72;;;5.87;99.67
43707;BME280;61348;53.392;-6.248;2023-11-21T09:59:06;102287.25;;;5.89;99.66
43707;BME280;61348;53.392;-6.248;2023-11-21T10:01:36;102279.28;;;5.92;99.85
43707;BME280;61348;53.392;-6.248;2023-11-21T10:04:05;102277.91;;;5.95;99.64
43707;BME280;61348;53.392;-6.248;2023-11-21T10:06:39;102279.53;;;5.96;99.78
43707;BME280;61348;53.392;-6.248;2023-11-21T10:09:12;102280.38;;;5.96;99.79
43707;BME280;61348;53.392;-6.248;2023-11-21T10:11:41;102294.66;;;5.98;99.84
43707;BME280;61348;53.392;-6.248;2023-11-21T10:14:12;102288.91;;;6.00;99.89
43707;BME280;61348;53.392;-6.248;2023-11-21T10:16:41;102282.03;;;6.02;99.65
43707;BME280;61348;53.392;-6.248;2023-11-21T10:19:12;102285.84;;;6.06;99.96
43707;BME280;61348;53.392;-6.248;2023-11-21T10:21:42;102282.28;;;6.11;99.81
43707;BME280;61348;53.392;-6.248;2023-11-21T10:24:10;102289.16;;;6.13;99.94
43707;BME280;61348;53.392;-6.248;2023-11-21T10:26:39;102301.53;;;6.16;99.96
43707;BME280;61348;53.392;-6.248;2023-11-21T10:29:19;102301.78;;;6.20;100.00
43707;BME280;61348;53.392;-6.248;2023-11-21T10:31:50;102302.06;;;6.23;99.65
43707;BME280;61348;53.392;-6.248;2023-11-21T10:34:20;102293.25;;;6.26;99.75
43707;BME280;61348;53.392;-6.248;2023-11-21T10:36:47;102296.28;;;6.30;99.88
43707;BME280;61348;53.392;-6.248;2023-11-21T10:39:19;102299.28;;;6.33;99.82
43707;BME280;61348;53.392;-6.248;2023-11-21T10:41:48;102294.34;;;6.35;99.69
43707;BME280;61348;53.392;-6.248;2023-11-21T10:44:17;102302.56;;;6.40;99.68
43707;BME280;61348;53.392;-6.248;2023-11-21T10:46:54;102313.81;;;6.44;99.45
43707;BME280;61348;53.392;-6.248;2023-11-21T10:49:27;102316.56;;;6.49;99.79
43707;BME280;61348;53.392;-6.248;2023-11-21T10:51:55;102316.84;;;6.52;99.70
43707;BME280;61348;53.392;-6.248;2023-11-21T10:54:24;102305.28;;;6.55;99.55
43707;BME280;61348;53.392;-6.248;2023-11-21T10:57:00;102309.94;;;6.60;99.70
43707;BME280;61348;53.392;-6.248;2023-11-21T10:59:30;102315.69;;;6.63;99.63
43707;BME280;61348;53.392;-6.248;2023-11-21T11:02:01;102307.72;;;6.67;99.71
43707;BME280;61348;53.392;-6.248;2023-11-21T11:04:31;102315.69;;;6.68;99.75
43707;BME280;61348;53.392;-6.248;2023-11-21T11:07:02;102331.63;;;6.71;99.61
43707;BME280;61348;53.392;-6.248;2023-11-21T11:09:32;102342.09;;;6.74;99.54
43707;BME280;61348;53.392;-6.248;2023-11-21T11:12:04;102339.88;;;6.77;99.81
43707;BME280;61348;53.392;-6.248;2023-11-21T11:14:32;102346.44;;;6.81;99.82
43707;BME280;61348;53.392;-6.248;2023-11-21T11:17:00;102334.88;;;6.84;99.79
43707;BME280;61348;53.392;-6.248;2023-11-21T11:19:29;102328.56;;;6.88;99.67
43707;BME280;61348;53.392;-6.248;2023-11-21T11:24:54;102315.00;;;6.97;99.71
43707;BME280;61348;53.392;-6.248;2023-11-21T11:30:26;102336.44;;;7.05;99.85
43707;BME280;61348;53.392;-6.248;2023-11-21T11:33:32;102336.16;;;7.11;99.71
43707;BME280;61348;53.392;-6.248;2023-11-21T11:36:13;102323.16;;;7.17;99.55
43707;BME280;61348;53.392;-6.248;2023-11-21T11:38:47;102309.91;;;7.24;99.57
43707;BME280;61348;53.392;-6.248;2023-11-21T11:41:25;102293.59;;;7.32;99.50
43707;BME280;61348;53.392;-6.248;2023-11-21T11:43:54;102290.47;;;7.44;99.59
43707;BME280;61348;53.392;-6.248;2023-11-21T11:46:43;102298.91;;;7.58;99.36
43707;BME280;61348;53.392;-6.248;2023-11-21T11:49:28;102306.53;;;7.71;99.26
43707;BME280;61348;53.392;-6.248;2023-11-21T11:55:06;102308.34;;;7.85;99.14
43707;BME280;61348;53.392;-6.248;2023-11-21T11:57:34;102292.28;;;7.92;99.03
43707;BME280;61348;53.392;-6.248;2023-11-21T12:03:00;102282.22;;;8.07;99.06
43707;BME280;61348;53.392;-6.248;2023-11-21T12:05:32;102286.59;;;8.13;99.04
43707;BME280;61348;53.392;-6.248;2023-11-21T12:08:02;102304.19;;;8.17;99.25
43707;BME280;61348;53.392;-6.248;2023-11-21T12:10:35;102309.13;;;8.20;99.29
43707;BME280;61348;53.392;-6.248;2023-11-21T12:15:35;102318.50;;;8.19;99.32
43707;BME280;61348;53.392;-6.248;2023-11-21T12:18:03;102311.34;;;8.18;99.17
43707;BME280;61348;53.392;-6.248;2023-11-21T12:20:31;102300.06;;;8.14;99.26
43707;BME280;61348;53.392;-6.248;2023-11-21T12:23:00;102290.72;;;8.10;99.39
43707;BME280;61348;53.392;-6.248;2023-11-21T12:25:31;102297.66;;;8.08;99.30
43707;BME280;61348;53.392;-6.248;2023-11-21T12:28:00;102308.16;;;8.06;99.42
43707;BME280;61348;53.392;-6.248;2023-11-21T12:30:31;102314.19;;;8.08;99.72
43707;BME280;61348;53.392;-6.248;2023-11-21T12:32:59;102316.69;;;8.09;99.48
43707;BME280;61348;53.392;-6.248;2023-11-21T12:35:32;102308.94;;;8.11;99.25
43707;BME280;61348;53.392;-6.248;2023-11-21T12:38:04;102295.38;;;8.15;99.21
43707;BME280;61348;53.392;-6.248;2023-11-21T12:40:32;102296.97;;;8.21;99.18
43707;BME280;61348;53.392;-6.248;2023-11-21T12:43:00;102294.72;;;8.28;99.18
43707;BME280;61348;53.392;-6.248;2023-11-21T12:45:32;102315.91;;;8.32;98.92
43707;BME280;61348;53.392;-6.248;2023-11-21T12:48:01;102326.38;;;8.35;98.98
43707;BME280;61348;53.392;-6.248;2023-11-21T12:50:31;102331.59;;;8.37;98.53
43707;BME280;61348;53.392;-6.248;2023-11-21T12:53:06;102338.78;;;8.38;98.82
43707;BME280;61348;53.392;-6.248;2023-11-21T12:55:36;102337.41;;;8.35;98.68
43707;BME280;61348;53.392;-6.248;2023-11-21T12:58:09;102334.34;;;8.37;98.60
43707;BME280;61348;53.392;-6.248;2023-11-21T13:00:43;102333.25;;;8.38;98.63
43707;BME280;61348;53.392;-6.248;2023-11-21T13:03:13;102343.19;;;8.39;98.40
43707;BME280;61348;53.392;-6.248;2023-11-21T13:05:46;102342.06;;;8.40;98.25
43707;BME280;61348;53.392;-6.248;2023-11-21T13:08:19;102341.22;;;8.39;98.21
43707;BME280;61348;53.392;-6.248;2023-11-21T13:10:56;102337.66;;;8.39;98.44
43707;BME280;61348;53.392;-6.248;2023-11-21T13:13:28;102342.34;;;8.38;98.03